Ocean Celebrity — HOSZ — position and weather

sailwx.info

Track history (hours):
 
Tides and Currents Weather Stations Pressure Air Temp Water Temp Dewpoint Dewpoint Depression Visibility Wind Speed Wind Dir Waves Ship Positions

Ocean Celebrity

Last reported at 2014-Sep-28 22:16 UTC. Time now 2014-Oct-02 16:39 UTC.
Position S 19°46' E 057°47'.

Length 289 m; draft 17.7 m.

Type: Cargo ship. MMSI: 356712000.

Date/timePositionNaut miles runAvg speedWind from/ knotsBaromVisibWave heightAir tempDewpointWater temp
2014-Sep-28 22:16S 19°46' E 057°47'7 9.7
2014-Sep-28 21:31S 19°49' E 057°40'9 9.4
2014-Sep-28 20:33S 19°55' E 057°33'1010.4
2014-Sep-28 19:33S 20°04' E 057°27'4 4.0
2014-Sep-28 18:33S 20°08' E 057°27'0 0.1
2014-Sep-28 17:33S 20°09' E 057°27'0 0.0
2014-Sep-28 16:33S 20°09' E 057°27'0 0.0
2014-Sep-28 15:33S 20°09' E 057°27'0 0.0
2014-Sep-28 14:33S 20°09' E 057°27'0 0.3
2014-Sep-28 13:33S 20°08' E 057°28'0 0.3
2014-Sep-28 12:33S 20°08' E 057°28'4 3.5
2014-Sep-28 11:33S 20°09' E 057°24'1111.2
2014-Sep-28 10:33S 20°16' E 057°14'1311.2
2014-Sep-28 09:23S 20°25' E 057°05'  
Track history (hours):
 
Tides and Currents Weather Stations Pressure Air Temp Water Temp Dewpoint Dewpoint Depression Visibility Wind Speed Wind Dir Waves Ship Positions

Ocean Celebrity

Last reported at 2014-Sep-28 22:16 UTC. Time now 2014-Oct-02 16:39 UTC.
Position S 19°46' E 057°47'.

Length 289 m; draft 17.7 m.

Type: Cargo ship. MMSI: 356712000.

Date/timePositionNaut miles runAvg speedWind from/ knotsBaromVisibWave heightAir tempDewpointWater temp
2014-Sep-28 22:16S 19°46' E 057°47'7 9.7
2014-Sep-28 21:31S 19°49' E 057°40'9 9.4
2014-Sep-28 20:33S 19°55' E 057°33'1010.4
2014-Sep-28 19:33S 20°04' E 057°27'4 4.0
2014-Sep-28 18:33S 20°08' E 057°27'0 0.1
2014-Sep-28 17:33S 20°09' E 057°27'0 0.0
2014-Sep-28 16:33S 20°09' E 057°27'0 0.0
2014-Sep-28 15:33S 20°09' E 057°27'0 0.0
2014-Sep-28 14:33S 20°09' E 057°27'0 0.3
2014-Sep-28 13:33S 20°08' E 057°28'0 0.3
2014-Sep-28 12:33S 20°08' E 057°28'4 3.5
2014-Sep-28 11:33S 20°09' E 057°24'1111.2
2014-Sep-28 10:33S 20°16' E 057°14'1311.2
2014-Sep-28 09:23S 20°25' E 057°05'  

Dump ship's entire track history